sensor_id;sensor_type;location;lat;lon;timestamp;P1;durP1;ratioP1;P2;durP2;ratioP2
38208;SDS011;24016;52.102;11.584;2023-03-14T00:01:50;4.20;;;2.35;;
38208;SDS011;24016;52.102;11.584;2023-03-14T00:04:15;3.47;;;1.73;;
38208;SDS011;24016;52.102;11.584;2023-03-14T00:06:41;3.97;;;2.28;;
38208;SDS011;24016;52.102;11.584;2023-03-14T00:09:07;3.88;;;2.03;;
38208;SDS011;24016;52.102;11.584;2023-03-14T00:11:32;3.05;;;1.95;;
38208;SDS011;24016;52.102;11.584;2023-03-14T00:13:58;3.58;;;2.17;;
38208;SDS011;24016;52.102;11.584;2023-03-14T00:16:24;2.80;;;2.03;;
38208;SDS011;24016;52.102;11.584;2023-03-14T00:18:51;3.65;;;1.70;;
38208;SDS011;24016;52.102;11.584;2023-03-14T00:21:16;4.68;;;2.20;;
38208;SDS011;24016;52.102;11.584;2023-03-14T00:23:42;2.25;;;1.88;;
38208;SDS011;24016;52.102;11.584;2023-03-14T00:26:09;5.65;;;2.97;;
38208;SDS011;24016;52.102;11.584;2023-03-14T00:28:43;4.25;;;2.25;;
38208;SDS011;24016;52.102;11.584;2023-03-14T00:31:09;8.35;;;5.28;;
38208;SDS011;24016;52.102;11.584;2023-03-14T00:33:36;8.55;;;4.82;;
38208;SDS011;24016;52.102;11.584;2023-03-14T00:36:03;6.93;;;3.83;;
38208;SDS011;24016;52.102;11.584;2023-03-14T00:38:31;5.32;;;3.08;;
38208;SDS011;24016;52.102;11.584;2023-03-14T00:40:57;5.43;;;2.97;;
38208;SDS011;24016;52.102;11.584;2023-03-14T00:43:23;5.47;;;2.08;;
38208;SDS011;24016;52.102;11.584;2023-03-14T00:45:50;3.90;;;1.90;;
38208;SDS011;24016;52.102;11.584;2023-03-14T00:48:17;3.53;;;1.95;;
38208;SDS011;24016;52.102;11.584;2023-03-14T00:50:43;3.92;;;1.45;;
38208;SDS011;24016;52.102;11.584;2023-03-14T00:53:09;4.13;;;1.65;;
38208;SDS011;24016;52.102;11.584;2023-03-14T00:55:39;5.55;;;2.55;;
38208;SDS011;24016;52.102;11.584;2023-03-14T00:58:05;8.43;;;3.78;;
38208;SDS011;24016;52.102;11.584;2023-03-14T01:00:31;7.38;;;3.33;;
38208;SDS011;24016;52.102;11.584;2023-03-14T01:02:57;3.22;;;1.75;;
38208;SDS011;24016;52.102;11.584;2023-03-14T01:05:22;4.47;;;1.90;;
38208;SDS011;24016;52.102;11.584;2023-03-14T01:07:48;4.63;;;2.35;;
38208;SDS011;24016;52.102;11.584;2023-03-14T01:10:14;2.97;;;1.73;;
38208;SDS011;24016;52.102;11.584;2023-03-14T01:12:40;6.25;;;3.28;;
38208;SDS011;24016;52.102;11.584;2023-03-14T01:15:06;3.60;;;2.45;;
38208;SDS011;24016;52.102;11.584;2023-03-14T01:17:32;4.25;;;1.85;;
38208;SDS011;24016;52.102;11.584;2023-03-14T01:19:57;5.57;;;2.10;;
38208;SDS011;24016;52.102;11.584;2023-03-14T01:22:24;3.65;;;1.58;;
38208;SDS011;24016;52.102;11.584;2023-03-14T01:24:49;3.85;;;1.83;;
38208;SDS011;24016;52.102;11.584;2023-03-14T01:27:15;3.75;;;1.63;;
38208;SDS011;24016;52.102;11.584;2023-03-14T01:29:40;3.53;;;1.60;;
38208;SDS011;24016;52.102;11.584;2023-03-14T01:34:41;3.05;;;2.00;;
38208;SDS011;24016;52.102;11.584;2023-03-14T01:37:07;2.80;;;1.50;;
38208;SDS011;24016;52.102;11.584;2023-03-14T01:39:33;2.13;;;1.40;;
38208;SDS011;24016;52.102;11.584;2023-03-14T01:41:59;4.32;;;2.60;;
38208;SDS011;24016;52.102;11.584;2023-03-14T01:44:25;4.47;;;2.40;;
38208;SDS011;24016;52.102;11.584;2023-03-14T01:46:51;1.98;;;1.33;;
38208;SDS011;24016;52.102;11.584;2023-03-14T01:49:18;3.47;;;1.42;;
38208;SDS011;24016;52.102;11.584;2023-03-14T01:51:59;3.25;;;1.45;;
38208;SDS011;24016;52.102;11.584;2023-03-14T01:54:28;2.78;;;1.60;;
38208;SDS011;24016;52.102;11.584;2023-03-14T01:57:07;3.40;;;1.60;;
38208;SDS011;24016;52.102;11.584;2023-03-14T01:59:40;1.45;;;1.10;;
38208;SDS011;24016;52.102;11.584;2023-03-14T02:02:11;1.73;;;1.00;;
38208;SDS011;24016;52.102;11.584;2023-03-14T02:04:37;4.57;;;1.10;;
38208;SDS011;24016;52.102;11.584;2023-03-14T02:07:12;2.65;;;1.20;;
38208;SDS011;24016;52.102;11.584;2023-03-14T02:09:45;3.13;;;1.30;;
38208;SDS011;24016;52.102;11.584;2023-03-14T02:12:14;1.95;;;1.20;;
38208;SDS011;24016;52.102;11.584;2023-03-14T02:14:41;2.45;;;1.50;;
38208;SDS011;24016;52.102;11.584;2023-03-14T02:17:12;2.53;;;1.30;;
38208;SDS011;24016;52.102;11.584;2023-03-14T02:22:33;2.42;;;1.10;;
38208;SDS011;24016;52.102;11.584;2023-03-14T02:25:03;2.67;;;1.33;;
38208;SDS011;24016;52.102;11.584;2023-03-14T02:27:50;2.95;;;1.02;;
38208;SDS011;24016;52.102;11.584;2023-03-14T02:30:18;3.05;;;1.30;;
38208;SDS011;24016;52.102;11.584;2023-03-14T02:32:47;3.83;;;1.30;;
38208;SDS011;24016;52.102;11.584;2023-03-14T02:35:21;1.77;;;1.10;;
38208;SDS011;24016;52.102;11.584;2023-03-14T02:37:51;3.97;;;1.00;;
38208;SDS011;24016;52.102;11.584;2023-03-14T02:40:21;3.53;;;1.40;;
38208;SDS011;24016;52.102;11.584;2023-03-14T02:42:47;2.47;;;1.13;;
38208;SDS011;24016;52.102;11.584;2023-03-14T02:47:43;2.28;;;1.48;;
38208;SDS011;24016;52.102;11.584;2023-03-14T02:52:40;2.35;;;1.20;;
38208;SDS011;24016;52.102;11.584;2023-03-14T02:55:06;2.63;;;1.25;;
38208;SDS011;24016;52.102;11.584;2023-03-14T02:57:32;2.40;;;1.20;;
38208;SDS011;24016;52.102;11.584;2023-03-14T02:59:58;2.65;;;1.23;;
38208;SDS011;24016;52.102;11.584;2023-03-14T03:02:25;3.55;;;1.20;;
38208;SDS011;24016;52.102;11.584;2023-03-14T03:04:51;2.63;;;1.30;;
38208;SDS011;24016;52.102;11.584;2023-03-14T03:07:16;2.45;;;1.25;;
38208;SDS011;24016;52.102;11.584;2023-03-14T03:09:42;3.55;;;1.02;;
38208;SDS011;24016;52.102;11.584;2023-03-14T03:12:07;2.88;;;1.20;;
38208;SDS011;24016;52.102;11.584;2023-03-14T03:14:33;2.22;;;1.20;;
38208;SDS011;24016;52.102;11.584;2023-03-14T03:16:58;2.92;;;1.20;;
38208;SDS011;24016;52.102;11.584;2023-03-14T03:19:24;3.33;;;1.15;;
38208;SDS011;24016;52.102;11.584;2023-03-14T03:21:49;4.43;;;1.20;;
38208;SDS011;24016;52.102;11.584;2023-03-14T03:24:15;3.53;;;1.27;;
38208;SDS011;24016;52.102;11.584;2023-03-14T03:26:40;3.22;;;1.23;;
38208;SDS011;24016;52.102;11.584;2023-03-14T03:29:06;4.07;;;1.10;;
38208;SDS011;24016;52.102;11.584;2023-03-14T03:31:31;2.53;;;1.10;;
38208;SDS011;24016;52.102;11.584;2023-03-14T03:33:57;1.95;;;1.00;;
38208;SDS011;24016;52.102;11.584;2023-03-14T03:36:23;1.98;;;1.15;;
38208;SDS011;24016;52.102;11.584;2023-03-14T03:38:50;2.15;;;0.95;;
38208;SDS011;24016;52.102;11.584;2023-03-14T03:41:15;3.25;;;1.05;;
38208;SDS011;24016;52.102;11.584;2023-03-14T03:43:41;3.30;;;1.25;;
38208;SDS011;24016;52.102;11.584;2023-03-14T03:46:07;5.47;;;1.30;;
38208;SDS011;24016;52.102;11.584;2023-03-14T03:48:34;3.25;;;1.23;;
38208;SDS011;24016;52.102;11.584;2023-03-14T03:51:00;2.78;;;1.17;;
38208;SDS011;24016;52.102;11.584;2023-03-14T03:53:25;3.90;;;1.20;;
38208;SDS011;24016;52.102;11.584;2023-03-14T03:55:51;2.80;;;1.10;;
38208;SDS011;24016;52.102;11.584;2023-03-14T03:58:17;2.72;;;1.15;;
38208;SDS011;24016;52.102;11.584;2023-03-14T04:00:42;4.53;;;1.05;;
38208;SDS011;24016;52.102;11.584;2023-03-14T04:03:08;5.35;;;1.45;;
38208;SDS011;24016;52.102;11.584;2023-03-14T04:05:34;3.90;;;1.20;;
38208;SDS011;24016;52.102;11.584;2023-03-14T04:08:00;2.22;;;1.10;;
38208;SDS011;24016;52.102;11.584;2023-03-14T04:10:26;2.30;;;1.10;;
38208;SDS011;24016;52.102;11.584;2023-03-14T04:12:51;4.43;;;1.10;;
38208;SDS011;24016;52.102;11.584;2023-03-14T04:15:17;2.97;;;1.15;;
38208;SDS011;24016;52.102;11.584;2023-03-14T04:17:43;4.07;;;1.20;;
38208;SDS011;24016;52.102;11.584;2023-03-14T04:20:09;3.88;;;1.20;;
38208;SDS011;24016;52.102;11.584;2023-03-14T04:22:38;2.13;;;1.00;;
38208;SDS011;24016;52.102;11.584;2023-03-14T04:25:04;2.15;;;1.20;;
38208;SDS011;24016;52.102;11.584;2023-03-14T04:27:30;5.30;;;1.42;;
38208;SDS011;24016;52.102;11.584;2023-03-14T04:29:56;1.92;;;0.90;;
38208;SDS011;24016;52.102;11.584;2023-03-14T04:32:22;3.33;;;1.35;;
38208;SDS011;24016;52.102;11.584;2023-03-14T04:34:47;2.70;;;1.23;;
38208;SDS011;24016;52.102;11.584;2023-03-14T04:37:13;3.95;;;1.25;;
38208;SDS011;24016;52.102;11.584;2023-03-14T04:39:38;2.92;;;1.27;;
38208;SDS011;24016;52.102;11.584;2023-03-14T04:42:04;2.65;;;1.10;;
38208;SDS011;24016;52.102;11.584;2023-03-14T04:44:29;2.42;;;1.20;;
38208;SDS011;24016;52.102;11.584;2023-03-14T04:46:55;2.58;;;1.25;;
38208;SDS011;24016;52.102;11.584;2023-03-14T04:49:21;4.50;;;1.55;;
38208;SDS011;24016;52.102;11.584;2023-03-14T04:51:46;5.13;;;1.20;;
38208;SDS011;24016;52.102;11.584;2023-03-14T04:54:12;3.60;;;1.33;;
38208;SDS011;24016;52.102;11.584;2023-03-14T04:56:37;1.90;;;1.20;;
38208;SDS011;24016;52.102;11.584;2023-03-14T04:59:03;3.10;;;1.23;;
38208;SDS011;24016;52.102;11.584;2023-03-14T05:01:29;2.45;;;1.20;;
38208;SDS011;24016;52.102;11.584;2023-03-14T05:03:55;3.90;;;1.30;;
38208;SDS011;24016;52.102;11.584;2023-03-14T05:06:20;5.22;;;1.50;;
38208;SDS011;24016;52.102;11.584;2023-03-14T05:08:46;3.50;;;1.33;;
38208;SDS011;24016;52.102;11.584;2023-03-14T05:11:11;4.10;;;1.40;;
38208;SDS011;24016;52.102;11.584;2023-03-14T05:13:37;7.15;;;1.50;;
38208;SDS011;24016;52.102;11.584;2023-03-14T05:16:04;4.03;;;1.42;;
38208;SDS011;24016;52.102;11.584;2023-03-14T05:18:33;3.83;;;1.58;;
38208;SDS011;24016;52.102;11.584;2023-03-14T05:20:59;3.53;;;1.30;;
38208;SDS011;24016;52.102;11.584;2023-03-14T05:23:25;7.03;;;1.60;;
38208;SDS011;24016;52.102;11.584;2023-03-14T05:25:50;4.03;;;1.50;;
38208;SDS011;24016;52.102;11.584;2023-03-14T05:28:16;6.22;;;1.40;;
38208;SDS011;24016;52.102;11.584;2023-03-14T05:30:42;2.88;;;1.40;;
38208;SDS011;24016;52.102;11.584;2023-03-14T05:33:07;3.88;;;1.25;;
38208;SDS011;24016;52.102;11.584;2023-03-14T05:35:33;5.07;;;1.65;;
38208;SDS011;24016;52.102;11.584;2023-03-14T05:37:59;4.22;;;1.50;;
38208;SDS011;24016;52.102;11.584;2023-03-14T05:40:25;3.22;;;1.33;;
38208;SDS011;24016;52.102;11.584;2023-03-14T05:42:50;2.60;;;1.23;;
38208;SDS011;24016;52.102;11.584;2023-03-14T05:45:17;5.50;;;1.58;;
38208;SDS011;24016;52.102;11.584;2023-03-14T05:47:42;7.97;;;1.60;;
38208;SDS011;24016;52.102;11.584;2023-03-14T05:50:08;6.13;;;1.60;;
38208;SDS011;24016;52.102;11.584;2023-03-14T05:52:34;7.72;;;1.60;;
38208;SDS011;24016;52.102;11.584;2023-03-14T05:54:59;3.60;;;1.48;;
38208;SDS011;24016;52.102;11.584;2023-03-14T05:57:25;4.78;;;1.70;;
38208;SDS011;24016;52.102;11.584;2023-03-14T05:59:50;8.23;;;1.85;;
38208;SDS011;24016;52.102;11.584;2023-03-14T06:02:16;3.55;;;1.88;;
38208;SDS011;24016;52.102;11.584;2023-03-14T06:04:41;6.65;;;1.83;;
38208;SDS011;24016;52.102;11.584;2023-03-14T06:07:07;3.83;;;1.50;;
38208;SDS011;24016;52.102;11.584;2023-03-14T06:09:33;2.83;;;1.40;;
38208;SDS011;24016;52.102;11.584;2023-03-14T06:11:58;6.13;;;2.22;;
38208;SDS011;24016;52.102;11.584;2023-03-14T06:14:24;6.07;;;1.95;;
38208;SDS011;24016;52.102;11.584;2023-03-14T06:16:50;5.55;;;1.40;;
38208;SDS011;24016;52.102;11.584;2023-03-14T06:19:17;5.43;;;1.85;;
38208;SDS011;24016;52.102;11.584;2023-03-14T06:21:42;5.10;;;1.60;;
38208;SDS011;24016;52.102;11.584;2023-03-14T06:24:08;6.20;;;1.65;;
38208;SDS011;24016;52.102;11.584;2023-03-14T06:26:34;7.85;;;1.63;;
38208;SDS011;24016;52.102;11.584;2023-03-14T06:28:59;6.05;;;1.80;;
38208;SDS011;24016;52.102;11.584;2023-03-14T06:31:28;6.65;;;1.42;;
38208;SDS011;24016;52.102;11.584;2023-03-14T06:33:55;6.45;;;1.52;;
38208;SDS011;24016;52.102;11.584;2023-03-14T06:36:20;3.95;;;1.63;;
38208;SDS011;24016;52.102;11.584;2023-03-14T06:38:49;5.85;;;1.50;;
38208;SDS011;24016;52.102;11.584;2023-03-14T06:41:14;5.78;;;1.70;;
38208;SDS011;24016;52.102;11.584;2023-03-14T06:43:41;4.30;;;1.52;;
38208;SDS011;24016;52.102;11.584;2023-03-14T06:46:06;6.13;;;2.15;;
38208;SDS011;24016;52.102;11.584;2023-03-14T06:48:32;7.88;;;1.67;;
38208;SDS011;24016;52.102;11.584;2023-03-14T06:50:58;5.78;;;1.30;;
38208;SDS011;24016;52.102;11.584;2023-03-14T06:53:24;4.57;;;1.13;;
38208;SDS011;24016;52.102;11.584;2023-03-14T06:55:49;3.42;;;1.35;;
38208;SDS011;24016;52.102;11.584;2023-03-14T06:58:15;6.10;;;1.40;;
38208;SDS011;24016;52.102;11.584;2023-03-14T07:00:40;3.47;;;1.20;;
38208;SDS011;24016;52.102;11.584;2023-03-14T07:03:06;1.73;;;0.82;;
38208;SDS011;24016;52.102;11.584;2023-03-14T07:05:32;3.22;;;1.20;;
38208;SDS011;24016;52.102;11.584;2023-03-14T07:07:58;5.68;;;1.48;;
38208;SDS011;24016;52.102;11.584;2023-03-14T07:10:24;3.95;;;1.45;;
38208;SDS011;24016;52.102;11.584;2023-03-14T07:12:50;3.13;;;1.10;;
38208;SDS011;24016;52.102;11.584;2023-03-14T07:15:17;3.05;;;1.20;;
38208;SDS011;24016;52.102;11.584;2023-03-14T07:17:43;3.05;;;1.10;;
38208;SDS011;24016;52.102;11.584;2023-03-14T07:20:08;2.72;;;1.00;;
38208;SDS011;24016;52.102;11.584;2023-03-14T07:22:34;2.65;;;0.90;;
38208;SDS011;24016;52.102;11.584;2023-03-14T07:25:03;3.28;;;0.75;;
38208;SDS011;24016;52.102;11.584;2023-03-14T07:27:29;1.95;;;0.80;;
38208;SDS011;24016;52.102;11.584;2023-03-14T07:29:54;1.52;;;0.80;;
38208;SDS011;24016;52.102;11.584;2023-03-14T07:32:20;2.90;;;1.00;;
38208;SDS011;24016;52.102;11.584;2023-03-14T07:34:45;5.45;;;1.73;;
38208;SDS011;24016;52.102;11.584;2023-03-14T07:37:11;3.72;;;1.55;;
38208;SDS011;24016;52.102;11.584;2023-03-14T07:39:37;2.63;;;1.10;;
38208;SDS011;24016;52.102;11.584;2023-03-14T07:42:02;2.35;;;1.00;;
38208;SDS011;24016;52.102;11.584;2023-03-14T07:44:28;2.90;;;0.90;;
38208;SDS011;24016;52.102;11.584;2023-03-14T07:46:53;3.03;;;1.05;;
38208;SDS011;24016;52.102;11.584;2023-03-14T07:49:19;4.10;;;1.17;;
38208;SDS011;24016;52.102;11.584;2023-03-14T07:51:47;2.58;;;0.90;;
38208;SDS011;24016;52.102;11.584;2023-03-14T07:54:13;4.05;;;1.08;;
38208;SDS011;24016;52.102;11.584;2023-03-14T07:56:39;5.15;;;1.35;;
38208;SDS011;24016;52.102;11.584;2023-03-14T07:59:04;5.28;;;1.23;;
38208;SDS011;24016;52.102;11.584;2023-03-14T08:01:30;5.53;;;1.30;;
38208;SDS011;24016;52.102;11.584;2023-03-14T08:03:55;2.60;;;1.00;;
38208;SDS011;24016;52.102;11.584;2023-03-14T08:06:21;4.00;;;1.30;;
38208;SDS011;24016;52.102;11.584;2023-03-14T08:08:46;3.35;;;1.00;;
38208;SDS011;24016;52.102;11.584;2023-03-14T08:11:12;4.00;;;1.40;;
38208;SDS011;24016;52.102;11.584;2023-03-14T08:13:37;3.05;;;1.08;;
38208;SDS011;24016;52.102;11.584;2023-03-14T08:16:04;5.07;;;1.30;;
38208;SDS011;24016;52.102;11.584;2023-03-14T08:18:30;4.57;;;1.10;;
38208;SDS011;24016;52.102;11.584;2023-03-14T08:20:56;5.30;;;1.30;;
38208;SDS011;24016;52.102;11.584;2023-03-14T08:23:21;3.03;;;1.42;;
38208;SDS011;24016;52.102;11.584;2023-03-14T08:25:50;4.53;;;1.27;;
38208;SDS011;24016;52.102;11.584;2023-03-14T08:28:18;3.30;;;1.17;;
38208;SDS011;24016;52.102;11.584;2023-03-14T08:30:47;2.42;;;1.00;;
38208;SDS011;24016;52.102;11.584;2023-03-14T08:33:12;3.08;;;1.10;;
38208;SDS011;24016;52.102;11.584;2023-03-14T08:35:38;2.67;;;1.02;;
38208;SDS011;24016;52.102;11.584;2023-03-14T08:38:04;3.17;;;0.80;;
38208;SDS011;24016;52.102;11.584;2023-03-14T08:40:30;2.75;;;1.05;;
38208;SDS011;24016;52.102;11.584;2023-03-14T08:42:55;5.22;;;1.25;;
38208;SDS011;24016;52.102;11.584;2023-03-14T08:45:21;1.83;;;0.75;;
38208;SDS011;24016;52.102;11.584;2023-03-14T08:47:46;2.88;;;1.05;;
38208;SDS011;24016;52.102;11.584;2023-03-14T08:50:12;1.83;;;0.70;;
38208;SDS011;24016;52.102;11.584;2023-03-14T08:52:38;1.98;;;0.80;;
38208;SDS011;24016;52.102;11.584;2023-03-14T08:55:06;2.65;;;0.90;;
38208;SDS011;24016;52.102;11.584;2023-03-14T08:57:32;2.05;;;0.80;;
38208;SDS011;24016;52.102;11.584;2023-03-14T08:59:58;2.40;;;0.80;;
38208;SDS011;24016;52.102;11.584;2023-03-14T09:02:24;3.03;;;0.75;;
38208;SDS011;24016;52.102;11.584;2023-03-14T09:04:50;1.70;;;0.68;;
38208;SDS011;24016;52.102;11.584;2023-03-14T09:07:17;2.67;;;0.93;;
38208;SDS011;24016;52.102;11.584;2023-03-14T09:09:43;2.63;;;0.63;;
38208;SDS011;24016;52.102;11.584;2023-03-14T09:12:09;2.28;;;0.70;;
38208;SDS011;24016;52.102;11.584;2023-03-14T09:14:34;3.63;;;0.90;;
38208;SDS011;24016;52.102;11.584;2023-03-14T09:17:00;2.15;;;0.70;;
38208;SDS011;24016;52.102;11.584;2023-03-14T09:19:26;1.17;;;0.70;;
38208;SDS011;24016;52.102;11.584;2023-03-14T09:21:51;2.85;;;0.82;;
38208;SDS011;24016;52.102;11.584;2023-03-14T09:24:17;1.73;;;0.77;;
38208;SDS011;24016;52.102;11.584;2023-03-14T09:26:42;1.77;;;0.70;;
38208;SDS011;24016;52.102;11.584;2023-03-14T09:29:08;0.93;;;0.70;;
38208;SDS011;24016;52.102;11.584;2023-03-14T09:31:34;3.10;;;0.70;;
38208;SDS011;24016;52.102;11.584;2023-03-14T09:34:00;2.28;;;0.80;;
38208;SDS011;24016;52.102;11.584;2023-03-14T09:36:26;0.85;;;0.52;;
38208;SDS011;24016;52.102;11.584;2023-03-14T09:38:51;1.27;;;0.70;;
38208;SDS011;24016;52.102;11.584;2023-03-14T09:41:18;1.40;;;0.70;;
38208;SDS011;24016;52.102;11.584;2023-03-14T09:43:53;1.98;;;0.98;;
38208;SDS011;24016;52.102;11.584;2023-03-14T09:46:25;3.70;;;0.73;;
38208;SDS011;24016;52.102;11.584;2023-03-14T09:48:52;1.38;;;0.60;;
38208;SDS011;24016;52.102;11.584;2023-03-14T09:51:18;0.73;;;0.43;;
38208;SDS011;24016;52.102;11.584;2023-03-14T09:53:47;2.10;;;0.70;;
38208;SDS011;24016;52.102;11.584;2023-03-14T09:56:23;0.70;;;0.50;;
38208;SDS011;24016;52.102;11.584;2023-03-14T09:58:56;0.93;;;0.52;;
38208;SDS011;24016;52.102;11.584;2023-03-14T10:01:28;1.20;;;0.60;;
38208;SDS011;24016;52.102;11.584;2023-03-14T10:03:56;2.45;;;0.60;;
38208;SDS011;24016;52.102;11.584;2023-03-14T10:06:25;0.82;;;0.65;;
38208;SDS011;24016;52.102;11.584;2023-03-14T10:08:53;2.25;;;0.70;;
38208;SDS011;24016;52.102;11.584;2023-03-14T10:11:20;1.25;;;0.60;;
38208;SDS011;24016;52.102;11.584;2023-03-14T10:13:50;1.50;;;0.70;;
38208;SDS011;24016;52.102;11.584;2023-03-14T10:16:32;3.22;;;0.77;;
38208;SDS011;24016;52.102;11.584;2023-03-14T10:19:03;0.98;;;0.70;;
38208;SDS011;24016;52.102;11.584;2023-03-14T10:21:30;2.40;;;0.90;;
38208;SDS011;24016;52.102;11.584;2023-03-14T10:24:10;0.75;;;0.60;;
38208;SDS011;24016;52.102;11.584;2023-03-14T10:26:53;1.77;;;0.82;;
38208;SDS011;24016;52.102;11.584;2023-03-14T10:29:19;1.42;;;0.50;;
38208;SDS011;24016;52.102;11.584;2023-03-14T10:31:53;0.98;;;0.75;;
38208;SDS011;24016;52.102;11.584;2023-03-14T10:34:23;4.97;;;0.77;;
38208;SDS011;24016;52.102;11.584;2023-03-14T10:36:58;2.00;;;0.77;;
38208;SDS011;24016;52.102;11.584;2023-03-14T10:39:46;0.70;;;0.35;;
38208;SDS011;24016;52.102;11.584;2023-03-14T10:42:20;0.43;;;0.40;;
38208;SDS011;24016;52.102;11.584;2023-03-14T10:44:57;0.47;;;0.35;;
38208;SDS011;24016;52.102;11.584;2023-03-14T10:47:26;3.30;;;0.57;;
38208;SDS011;24016;52.102;11.584;2023-03-14T10:49:53;4.57;;;0.75;;
38208;SDS011;24016;52.102;11.584;2023-03-14T10:52:20;0.57;;;0.45;;
38208;SDS011;24016;52.102;11.584;2023-03-14T10:54:57;0.57;;;0.52;;
38208;SDS011;24016;52.102;11.584;2023-03-14T10:57:24;1.45;;;0.60;;
38208;SDS011;24016;52.102;11.584;2023-03-14T10:59:51;0.75;;;0.40;;
38208;SDS011;24016;52.102;11.584;2023-03-14T11:02:36;0.75;;;0.40;;
38208;SDS011;24016;52.102;11.584;2023-03-14T11:05:14;1.05;;;0.40;;
38208;SDS011;24016;52.102;11.584;2023-03-14T11:08:01;2.17;;;0.60;;
38208;SDS011;24016;52.102;11.584;2023-03-14T11:13:06;0.50;;;0.50;;
38208;SDS011;24016;52.102;11.584;2023-03-14T11:24:27;2.38;;;0.52;;
38208;SDS011;24016;52.102;11.584;2023-03-14T11:29:51;3.03;;;0.70;;
38208;SDS011;24016;52.102;11.584;2023-03-14T11:32:36;0.88;;;0.50;;
38208;SDS011;24016;52.102;11.584;2023-03-14T11:35:14;1.35;;;0.28;;
38208;SDS011;24016;52.102;11.584;2023-03-14T11:37:54;0.47;;;0.47;;
38208;SDS011;24016;52.102;11.584;2023-03-14T11:40:38;0.93;;;0.50;;
38208;SDS011;24016;52.102;11.584;2023-03-14T11:45:38;0.63;;;0.43;;
38208;SDS011;24016;52.102;11.584;2023-03-14T11:51:01;5.10;;;1.70;;
38208;SDS011;24016;52.102;11.584;2023-03-14T11:53:40;0.65;;;0.35;;
38208;SDS011;24016;52.102;11.584;2023-03-14T11:56:21;0.63;;;0.40;;
38208;SDS011;24016;52.102;11.584;2023-03-14T11:59:12;0.95;;;0.40;;
38208;SDS011;24016;52.102;11.584;2023-03-14T12:01:53;0.47;;;0.40;;
38208;SDS011;24016;52.102;11.584;2023-03-14T12:07:14;0.73;;;0.40;;
38208;SDS011;24016;52.102;11.584;2023-03-14T12:09:45;1.00;;;0.32;;
38208;SDS011;24016;52.102;11.584;2023-03-14T12:12:12;0.82;;;0.50;;
38208;SDS011;24016;52.102;11.584;2023-03-14T12:14:44;1.73;;;0.68;;
38208;SDS011;24016;52.102;11.584;2023-03-14T12:17:39;0.93;;;0.52;;
38208;SDS011;24016;52.102;11.584;2023-03-14T12:23:02;1.55;;;0.30;;
38208;SDS011;24016;52.102;11.584;2023-03-14T12:25:30;0.38;;;0.38;;
38208;SDS011;24016;52.102;11.584;2023-03-14T12:35:42;0.75;;;0.40;;
38208;SDS011;24016;52.102;11.584;2023-03-14T12:38:13;0.90;;;0.50;;
38208;SDS011;24016;52.102;11.584;2023-03-14T12:40:41;1.97;;;0.70;;
38208;SDS011;24016;52.102;11.584;2023-03-14T12:43:31;1.70;;;0.80;;
38208;SDS011;24016;52.102;11.584;2023-03-14T12:46:09;0.50;;;0.40;;
38208;SDS011;24016;52.102;11.584;2023-03-14T12:48:44;1.35;;;0.45;;
38208;SDS011;24016;52.102;11.584;2023-03-14T12:51:12;0.85;;;0.40;;
38208;SDS011;24016;52.102;11.584;2023-03-14T12:59:15;0.60;;;0.40;;
38208;SDS011;24016;52.102;11.584;2023-03-14T13:01:55;1.70;;;0.47;;
38208;SDS011;24016;52.102;11.584;2023-03-14T13:04:29;0.80;;;0.60;;
38208;SDS011;24016;52.102;11.584;2023-03-14T13:07:29;1.48;;;0.80;;
38208;SDS011;24016;52.102;11.584;2023-03-14T13:10:03;0.73;;;0.70;;
38208;SDS011;24016;52.102;11.584;2023-03-14T13:12:39;4.82;;;1.30;;
38208;SDS011;24016;52.102;11.584;2023-03-14T13:15:29;3.22;;;1.45;;
38208;SDS011;24016;52.102;11.584;2023-03-14T13:18:08;2.60;;;1.20;;
38208;SDS011;24016;52.102;11.584;2023-03-14T13:20:48;3.50;;;1.55;;
38208;SDS011;24016;52.102;11.584;2023-03-14T13:23:25;2.13;;;1.58;;
38208;SDS011;24016;52.102;11.584;2023-03-14T13:25:52;5.28;;;3.65;;
38208;SDS011;24016;52.102;11.584;2023-03-14T13:28:18;2.72;;;1.65;;
38208;SDS011;24016;52.102;11.584;2023-03-14T13:30:45;1.10;;;0.60;;
38208;SDS011;24016;52.102;11.584;2023-03-14T13:33:14;2.05;;;0.75;;
38208;SDS011;24016;52.102;11.584;2023-03-14T13:35:49;1.17;;;0.70;;
38208;SDS011;24016;52.102;11.584;2023-03-14T13:38:26;2.08;;;0.80;;
38208;SDS011;24016;52.102;11.584;2023-03-14T13:40:54;1.65;;;0.73;;
38208;SDS011;24016;52.102;11.584;2023-03-14T13:43:28;3.35;;;1.00;;
38208;SDS011;24016;52.102;11.584;2023-03-14T13:46:03;1.17;;;0.55;;
38208;SDS011;24016;52.102;11.584;2023-03-14T13:48:32;1.33;;;0.57;;
38208;SDS011;24016;52.102;11.584;2023-03-14T13:51:06;0.73;;;0.70;;
38208;SDS011;24016;52.102;11.584;2023-03-14T13:53:48;1.05;;;0.60;;
38208;SDS011;24016;52.102;11.584;2023-03-14T13:56:19;2.13;;;0.80;;
38208;SDS011;24016;52.102;11.584;2023-03-14T13:58:55;3.00;;;0.80;;
38208;SDS011;24016;52.102;11.584;2023-03-14T14:01:28;1.00;;;0.60;;
38208;SDS011;24016;52.102;11.584;2023-03-14T14:04:05;1.02;;;0.68;;
38208;SDS011;24016;52.102;11.584;2023-03-14T14:06:44;3.90;;;0.80;;
38208;SDS011;24016;52.102;11.584;2023-03-14T14:09:13;2.88;;;0.93;;
38208;SDS011;24016;52.102;11.584;2023-03-14T14:14:10;1.27;;;0.70;;
38208;SDS011;24016;52.102;11.584;2023-03-14T14:16:57;1.90;;;1.00;;
38208;SDS011;24016;52.102;11.584;2023-03-14T14:19:25;1.10;;;1.00;;
38208;SDS011;24016;52.102;11.584;2023-03-14T14:21:54;2.03;;;1.30;;
38208;SDS011;24016;52.102;11.584;2023-03-14T14:24:22;2.60;;;1.30;;
38208;SDS011;24016;52.102;11.584;2023-03-14T14:26:51;1.73;;;1.30;;
38208;SDS011;24016;52.102;11.584;2023-03-14T14:29:28;2.50;;;1.30;;
38208;SDS011;24016;52.102;11.584;2023-03-14T14:32:33;1.73;;;1.60;;
38208;SDS011;24016;52.102;11.584;2023-03-14T14:34:56;1.30;;;1.20;;
38208;SDS011;24016;52.102;11.584;2023-03-14T14:37:25;1.73;;;1.30;;
38208;SDS011;24016;52.102;11.584;2023-03-14T14:39:51;1.58;;;1.30;;
38208;SDS011;24016;52.102;11.584;2023-03-14T14:42:21;2.65;;;1.77;;
38208;SDS011;24016;52.102;11.584;2023-03-14T14:44:55;1.67;;;1.48;;
38208;SDS011;24016;52.102;11.584;2023-03-14T14:47:22;3.47;;;1.83;;
38208;SDS011;24016;52.102;11.584;2023-03-14T14:49:50;3.92;;;1.60;;
38208;SDS011;24016;52.102;11.584;2023-03-14T14:52:18;2.72;;;2.00;;
38208;SDS011;24016;52.102;11.584;2023-03-14T14:54:58;2.58;;;1.70;;
38208;SDS011;24016;52.102;11.584;2023-03-14T14:57:30;3.60;;;2.15;;
38208;SDS011;24016;52.102;11.584;2023-03-14T15:00:04;3.17;;;2.20;;
38208;SDS011;24016;52.102;11.584;2023-03-14T15:02:41;2.35;;;1.48;;
38208;SDS011;24016;52.102;11.584;2023-03-14T15:05:12;2.22;;;1.38;;
38208;SDS011;24016;52.102;11.584;2023-03-14T15:07:42;3.50;;;1.70;;
38208;SDS011;24016;52.102;11.584;2023-03-14T15:10:25;3.33;;;1.67;;
38208;SDS011;24016;52.102;11.584;2023-03-14T15:12:51;4.05;;;2.03;;
38208;SDS011;24016;52.102;11.584;2023-03-14T15:15:17;6.43;;;1.80;;
38208;SDS011;24016;52.102;11.584;2023-03-14T15:17:43;4.18;;;1.90;;
38208;SDS011;24016;52.102;11.584;2023-03-14T15:20:15;3.92;;;1.63;;
38208;SDS011;24016;52.102;11.584;2023-03-14T15:22:43;4.22;;;1.90;;
38208;SDS011;24016;52.102;11.584;2023-03-14T15:25:09;4.93;;;1.30;;
38208;SDS011;24016;52.102;11.584;2023-03-14T15:27:35;4.90;;;2.00;;
38208;SDS011;24016;52.102;11.584;2023-03-14T15:30:01;9.00;;;2.00;;
38208;SDS011;24016;52.102;11.584;2023-03-14T15:32:27;8.20;;;1.73;;
38208;SDS011;24016;52.102;11.584;2023-03-14T15:34:54;7.90;;;1.92;;